»·PEaware :: N746SW KMHV-KNUC

N746SW :: KMHV-KNUC

FLIGHT INFORMATION

Flight Status: Arrived
Operator: Privately registered:
United States
More flights under this callsign
Pilot: Dean B. (20222)
Aircraft: BEECH AIRCRAFT A90-E90 KING AIR
(BE9L)
More flights by this aircraft type
Origin: KMHV Mojave
United States
Destination: KNUC San Clemente I NALF
United States
More flights between these airports :: More routes between these airports
Route: +
File this flight plan on PilotEdge
Remarks:
Altitude:
(Current/Filed)
10,500ft
Speed:
(Current/Filed)
0kts
Departed: 28-May-19 04:55 PM
Arrived: 28-May-19 05:43 PM
Distance/Time
Traveled:
124nm/0:48
Distance/Time
To Go:
Arrived

Flight Plot

Page will automatically refresh every two minutes.

Flight plan parsing failed; only flown route is shown


Map Options




Map Legend


Flown Route
Filed Route
Departure Airport
Arrival Airport
Navaid (VOR, NDB)
Fix

Horizontal Profiles

Position Reports

Time Latitude Longitude Heading Altitude Ground
Speed
28-May-19 16:46 35.056589 -118.150071 358 2742ft 0kts
28-May-19 16:47 35.056589 -118.150071 358 2742ft 0kts
28-May-19 16:48 35.056589 -118.150071 358 2742ft 0kts
28-May-19 16:49 35.057413 -118.148569 133 2741ft 12kts
28-May-19 16:50 35.053344 -118.143677 134 2721ft 15kts
28-May-19 16:51 35.048098 -118.137411 135 2698ft 18kts
28-May-19 16:52 35.044121 -118.132294 86 2680ft 4kts
28-May-19 16:53 35.044323 -118.131691 37 2679ft 0kts
28-May-19 16:54 35.048876 -118.135896 314 2696ft 93kts
28-May-19 16:55 35.074016 -118.166313 313 4090ft 133kts
28-May-19 16:56 35.075572 -118.204325 242 6219ft 136kts
28-May-19 16:57 35.038112 -118.230807 206 7432ft 181kts
28-May-19 16:58 34.987116 -118.247843 182 8160ft 206kts
28-May-19 16:59 34.929295 -118.251113 196 9009ft 201kts
28-May-19 17:00 34.879537 -118.278099 209 10106ft 196kts
28-May-19 17:01 34.831749 -118.311232 210 11017ft 197kts
28-May-19 17:02 34.784151 -118.345073 210 11293ft 209kts
28-May-19 17:03 34.734699 -118.380290 210 11274ft 203kts
28-May-19 17:04 34.685956 -118.415304 215 11207ft 198kts
28-May-19 17:05 34.640642 -118.452120 214 10885ft 203kts
28-May-19 17:06 34.594346 -118.489701 214 10966ft 195kts
28-May-19 17:07 34.549069 -118.526407 213 10990ft 195kts
28-May-19 17:08 34.503690 -118.563144 213 11015ft 195kts
28-May-19 17:09 34.458524 -118.599660 213 11041ft 195kts
28-May-19 17:10 34.413256 -118.636211 213 11045ft 196kts
28-May-19 17:11 34.368703 -118.672143 212 10880ft 193kts
28-May-19 17:12 34.324597 -118.707635 214 10926ft 183kts
28-May-19 17:13 34.281914 -118.741993 214 11300ft 183kts
28-May-19 17:14 34.237786 -118.777443 214 11177ft 205kts
28-May-19 17:15 34.190289 -118.815534 214 11049ft 202kts
28-May-19 17:16 34.143760 -118.852806 215 10940ft 197kts
28-May-19 17:17 34.097960 -118.889451 215 10900ft 195kts
28-May-19 17:18 34.052981 -118.925394 215 10885ft 194kts
28-May-19 17:19 34.007731 -118.961504 216 10855ft 194kts
28-May-19 17:20 33.958358 -118.981781 159 10424ft 216kts
28-May-19 17:21 33.907193 -118.959582 159 10820ft 194kts
28-May-19 17:22 33.856009 -118.937825 159 10830ft 195kts
28-May-19 17:23 33.804948 -118.916204 159 10834ft 194kts
28-May-19 17:24 33.753779 -118.894572 159 10837ft 194kts
28-May-19 17:25 33.702820 -118.873059 159 10843ft 193kts
28-May-19 17:26 33.652149 -118.851692 158 10846ft 192kts
28-May-19 17:27 33.601907 -118.830533 158 10853ft 191kts
28-May-19 17:28 33.552215 -118.809628 158 10750ft 189kts
28-May-19 17:29 33.503093 -118.788990 158 10821ft 188kts
28-May-19 17:30 33.453568 -118.768212 158 10832ft 188kts
28-May-19 17:31 33.403994 -118.747436 158 10839ft 189kts
28-May-19 17:32 33.355245 -118.727570 160 10441ft 170kts
28-May-19 17:33 33.308681 -118.707134 158 9971ft 183kts
28-May-19 17:34 33.259293 -118.686076 160 9307ft 195kts
28-May-19 17:35 33.208831 -118.664385 154 8575ft 189kts
28-May-19 17:36 33.164080 -118.630830 132 7619ft 197kts
28-May-19 17:37 33.129187 -118.578982 121 6270ft 202kts
28-May-19 17:38 33.088714 -118.529347 151 3836ft 212kts
28-May-19 17:39 33.043149 -118.527134 245 1595ft 144kts
28-May-19 17:40 33.031167 -118.564494 249 435ft 102kts
28-May-19 17:41 33.022474 -118.589288 248 143ft 49kts
28-May-19 17:42 33.018926 -118.595017 65 143ft 23kts
28-May-19 17:43 33.022167 -118.585671 101 143ft 10kts
28-May-19 17:44 33.020686 -118.586369 247 143ft 0kts

Navigation Log

Ident Type
Flight plan parsing failed, navigation log unavailable